Time;durP1;ratioP1;P1;durP2;ratioP2;P2;SDS_P1;SDS_P2;PMS_P1;PMS_P2;Temp;Humidity;BMP_temperature;BMP_pressure;BME280_temperature;BME280_humidity;BME280_pressure;Samples;Min_cycle;Max_cycle;Signal;HPM_P1;HPM_P2
2023/09/29 00:00:44;;;;;;;4.28;2.40;;;;;;;;;;5000611;28;20437;-69
2023/09/29 00:04:25;;;;;;;5.93;2.65;;;;;;;;;;5000219;28;20299;-70
2023/09/29 00:08:07;;;;;;;7.47;2.47;;;;;;;;;;5005861;28;20037;-70
2023/09/29 00:11:47;;;;;;;7.93;2.60;;;;;;;;;;5001759;28;20072;-69
2023/09/29 00:15:26;;;;;;;7.93;2.67;;;;;;;;;;5001702;28;20053;-69
2023/09/29 00:19:06;;;;;;;9.02;2.50;;;;;;;;;;4995457;28;20045;-70
2023/09/29 00:22:48;;;;;;;4.30;2.47;;;;;;;;;;5003237;28;20050;-72
2023/09/29 00:26:28;;;;;;;5.25;2.28;;;;;;;;;;5003716;28;20037;-70
2023/09/29 00:30:09;;;;;;;8.55;3.15;;;;;;;;;;5000855;28;20121;-69
2023/09/29 00:33:50;;;;;;;8.13;3.03;;;;;;;;;;5004287;28;20192;-71
2023/09/29 00:37:30;;;;;;;8.75;3.00;;;;;;;;;;5001991;28;20045;-68
2023/09/29 00:41:11;;;;;;;7.07;3.28;;;;;;;;;;5003580;28;20072;-70
2023/09/29 00:44:53;;;;;;;7.60;3.20;;;;;;;;;;5003280;28;20135;-69
2023/09/29 00:48:35;;;;;;;5.75;3.22;;;;;;;;;;4997461;28;20495;-73
2023/09/29 00:52:16;;;;;;;5.57;3.40;;;;;;;;;;5003100;28;20054;-72
2023/09/29 00:55:55;;;;;;;6.53;3.13;;;;;;;;;;5008754;28;20053;-72
2023/09/29 00:59:36;;;;;;;9.68;3.60;;;;;;;;;;5002352;28;20046;-69
2023/09/29 01:02:57;;;;;;;7.10;3.53;;;;;;;;;;5000226;28;20070;-71
2023/09/29 01:06:37;;;;;;;6.85;2.90;;;;;;;;;;5001692;28;20068;-68
2023/09/29 01:10:20;;;;;;;6.22;3.15;;;;;;;;;;5006141;28;20320;-69
2023/09/29 01:14:01;;;;;;;7.68;3.42;;;;;;;;;;5008623;28;20046;-69
2023/09/29 01:17:43;;;;;;;8.98;3.05;;;;;;;;;;5011045;28;20034;-69
2023/09/29 01:21:24;;;;;;;9.88;3.45;;;;;;;;;;5009541;28;20145;-71
2023/09/29 01:25:05;;;;;;;7.13;2.97;;;;;;;;;;5008754;28;20038;-70
2023/09/29 01:28:47;;;;;;;9.60;3.40;;;;;;;;;;5008475;28;20060;-69
2023/09/29 01:32:25;;;;;;;8.43;3.40;;;;;;;;;;5005562;28;20053;-70
2023/09/29 01:36:05;;;;;;;6.72;3.15;;;;;;;;;;5002923;28;20065;-69
2023/09/29 01:39:47;;;;;;;9.88;3.85;;;;;;;;;;5006879;28;20042;-71
2023/09/29 01:43:26;;;;;;;11.27;3.90;;;;;;;;;;5002612;28;20450;-68
2023/09/29 01:47:06;;;;;;;8.48;4.68;;;;;;;;;;5001844;28;20103;-69
2023/09/29 01:50:49;;;;;;;14.65;6.03;;;;;;;;;;5004901;28;20052;-69
2023/09/29 01:54:29;;;;;;;12.43;5.70;;;;;;;;;;5005932;28;20099;-69
2023/09/29 01:58:10;;;;;;;7.93;4.55;;;;;;;;;;5008092;28;20045;-69
2023/09/29 02:01:50;;;;;;;13.52;3.92;;;;;;;;;;5005182;28;20512;-68
2023/09/29 02:05:30;;;;;;;10.20;3.63;;;;;;;;;;5006640;28;20042;-70
2023/09/29 02:09:11;;;;;;;6.80;3.65;;;;;;;;;;5008128;28;20049;-70
2023/09/29 02:12:52;;;;;;;8.10;3.80;;;;;;;;;;5004314;28;20536;-70
2023/09/29 02:16:31;;;;;;;8.95;3.30;;;;;;;;;;5003414;28;20065;-70
2023/09/29 02:20:13;;;;;;;6.78;3.38;;;;;;;;;;5003104;28;21889;-70
2023/09/29 02:23:52;;;;;;;7.20;2.60;;;;;;;;;;5006832;28;20049;-71
2023/09/29 02:27:32;;;;;;;7.35;2.78;;;;;;;;;;5007055;28;20072;-69
2023/09/29 02:31:13;;;;;;;5.50;2.40;;;;;;;;;;5004225;28;20569;-71
2023/09/29 02:34:55;;;;;;;5.32;2.80;;;;;;;;;;5005119;28;20084;-68
2023/09/29 02:38:37;;;;;;;5.55;2.70;;;;;;;;;;5009938;28;20065;-70
2023/09/29 02:42:19;;;;;;;9.07;3.22;;;;;;;;;;5007005;28;20128;-69
2023/09/29 02:45:59;;;;;;;7.32;2.75;;;;;;;;;;5007373;28;20049;-70
2023/09/29 02:49:40;;;;;;;6.20;2.42;;;;;;;;;;5008428;28;20030;-68
2023/09/29 02:53:20;;;;;;;7.50;2.70;;;;;;;;;;5008644;28;20092;-72
2023/09/29 02:57:00;;;;;;;7.47;2.80;;;;;;;;;;5003990;28;20056;-70
2023/09/29 03:00:41;;;;;;;6.28;2.47;;;;;;;;;;5003551;28;20525;-70
2023/09/29 03:04:21;;;;;;;5.65;2.40;;;;;;;;;;5008256;28;20038;-70
2023/09/29 03:08:01;;;;;;;5.63;2.60;;;;;;;;;;5001903;28;20049;-68
2023/09/29 03:11:43;;;;;;;4.78;2.53;;;;;;;;;;5006797;28;20813;-69
2023/09/29 03:15:24;;;;;;;7.28;2.95;;;;;;;;;;5005136;28;20041;-71
2023/09/29 03:19:04;;;;;;;8.68;2.50;;;;;;;;;;5004299;28;20080;-70
2023/09/29 03:22:44;;;;;;;5.35;2.60;;;;;;;;;;5004939;28;20504;-68
2023/09/29 03:26:25;;;;;;;9.93;2.67;;;;;;;;;;5003474;28;20045;-68
2023/09/29 03:30:07;;;;;;;9.13;2.53;;;;;;;;;;5002838;28;20409;-69
2023/09/29 03:33:46;;;;;;;5.00;2.67;;;;;;;;;;5003895;28;20056;-70
2023/09/29 03:37:28;;;;;;;5.55;2.53;;;;;;;;;;5002606;28;20619;-69
2023/09/29 03:41:10;;;;;;;4.82;2.80;;;;;;;;;;5004276;28;20057;-69
2023/09/29 03:44:49;;;;;;;4.10;2.20;;;;;;;;;;5002261;28;20046;-68
2023/09/29 03:48:06;;;;;;;5.57;2.95;;;;;;;;;;4997711;28;20044;-69
2023/09/29 03:51:12;;;;;;;5.65;2.60;;;;;;;;;;4986737;28;20505;-69
2023/09/29 03:54:53;;;;;;;6.57;2.90;;;;;;;;;;4999612;28;20045;-69
2023/09/29 03:58:33;;;;;;;5.05;2.50;;;;;;;;;;4999266;28;20046;-69
2023/09/29 04:02:13;;;;;;;7.75;2.75;;;;;;;;;;5003452;28;20564;-70
2023/09/29 04:05:54;;;;;;;7.20;2.97;;;;;;;;;;4998175;28;20042;-70
2023/09/29 04:09:34;;;;;;;6.70;2.40;;;;;;;;;;5004376;28;20049;-69
2023/09/29 04:13:20;;;;;;;10.57;3.03;;;;;;;;;;5001186;28;20065;-69
2023/09/29 04:17:00;;;;;;;6.85;3.10;;;;;;;;;;4999232;28;20042;-70
2023/09/29 04:20:27;;;;;;;9.70;2.72;;;;;;;;;;4997046;28;20118;-69
2023/09/29 04:24:07;;;;;;;11.30;2.75;;;;;;;;;;5000010;28;20054;-69
2023/09/29 04:27:48;;;;;;;5.80;2.25;;;;;;;;;;5000524;28;20518;-70
2023/09/29 04:31:28;;;;;;;7.63;2.70;;;;;;;;;;5000312;28;20042;-70
2023/09/29 04:35:09;;;;;;;6.53;2.70;;;;;;;;;;4995524;28;20058;-69
2023/09/29 04:38:49;;;;;;;7.40;2.50;;;;;;;;;;5004425;28;20054;-70
2023/09/29 04:42:29;;;;;;;7.10;3.03;;;;;;;;;;5007472;28;20088;-69
2023/09/29 04:46:10;;;;;;;9.35;3.13;;;;;;;;;;5009137;28;20441;-71
2023/09/29 04:49:50;;;;;;;14.13;2.80;;;;;;;;;;5006820;28;20050;-69
2023/09/29 04:53:30;;;;;;;7.68;3.10;;;;;;;;;;5007944;28;20045;-71
2023/09/29 04:57:10;;;;;;;6.85;3.08;;;;;;;;;;5008162;28;20049;-70
2023/09/29 05:00:52;;;;;;;5.30;2.72;;;;;;;;;;5007783;28;20085;-70
2023/09/29 05:04:32;;;;;;;8.63;3.05;;;;;;;;;;5012092;28;20049;-70
2023/09/29 05:08:17;;;;;;;6.57;3.00;;;;;;;;;;5004664;28;20054;-79
2023/09/29 05:12:00;;;;;;;6.03;2.88;;;;;;;;;;4999433;28;20450;-65
2023/09/29 05:15:42;;;;;;;7.25;3.90;;;;;;;;;;5006450;28;20161;-65
2023/09/29 05:19:16;;;;;;;10.55;3.63;;;;;;;;;;5005164;28;20058;-65
2023/09/29 05:22:39;;;;;;;8.73;3.17;;;;;;;;;;5001123;28;20042;-65
2023/09/29 05:26:28;;;;;;;13.63;3.80;;;;;;;;;;5002304;28;20410;-65
2023/09/29 05:30:09;;;;;;;7.63;3.30;;;;;;;;;;5000899;28;20139;-66
2023/09/29 05:33:53;;;;;;;7.90;3.05;;;;;;;;;;5007831;28;20061;-63
2023/09/29 05:37:32;;;;;;;9.63;3.03;;;;;;;;;;5005650;28;20116;-68
2023/09/29 05:41:12;;;;;;;8.18;3.10;;;;;;;;;;5003413;28;20052;-67
2023/09/29 05:44:53;;;;;;;8.95;3.10;;;;;;;;;;5002866;28;20282;-67
2023/09/29 05:48:33;;;;;;;9.77;2.75;;;;;;;;;;5002613;28;20612;-67
2023/09/29 05:52:16;;;;;;;7.78;2.97;;;;;;;;;;5004348;28;20040;-66
2023/09/29 05:55:57;;;;;;;16.55;4.38;;;;;;;;;;5006263;28;20045;-65
2023/09/29 05:59:37;;;;;;;19.65;3.65;;;;;;;;;;5007324;28;20490;-67
2023/09/29 06:03:17;;;;;;;15.20;3.35;;;;;;;;;;5003088;28;20133;-67
2023/09/29 06:06:58;;;;;;;11.18;3.22;;;;;;;;;;5014005;28;20387;-68
2023/09/29 06:10:39;;;;;;;7.50;2.70;;;;;;;;;;5001548;28;20058;-66
2023/09/29 06:14:21;;;;;;;7.50;3.20;;;;;;;;;;5005427;28;20057;-66
2023/09/29 06:18:01;;;;;;;8.93;3.78;;;;;;;;;;5003754;28;20362;-66
2023/09/29 06:21:44;;;;;;;6.75;3.38;;;;;;;;;;5000364;28;20065;-65
2023/09/29 06:25:22;;;;;;;12.20;3.80;;;;;;;;;;4999744;28;20052;-66
2023/09/29 06:29:04;;;;;;;10.27;3.72;;;;;;;;;;5001122;28;20050;-66
2023/09/29 06:32:46;;;;;;;7.88;3.22;;;;;;;;;;4997160;28;20523;-66
2023/09/29 06:36:28;;;;;;;13.20;3.72;;;;;;;;;;5005857;28;20489;-65
2023/09/29 06:40:13;;;;;;;9.40;3.70;;;;;;;;;;5002018;28;20402;-65
2023/09/29 06:43:53;;;;;;;10.13;3.55;;;;;;;;;;5002398;28;20042;-71
2023/09/29 06:47:35;;;;;;;12.65;3.35;;;;;;;;;;5000147;28;20046;-70
2023/09/29 06:51:18;;;;;;;14.57;3.80;;;;;;;;;;5000697;28;20507;-70
2023/09/29 06:54:58;;;;;;;12.77;3.58;;;;;;;;;;4996961;28;20408;-72
2023/09/29 06:58:39;;;;;;;10.48;3.60;;;;;;;;;;5003694;28;20065;-73
2023/09/29 07:02:19;;;;;;;15.23;4.07;;;;;;;;;;5005501;28;20041;-69
2023/09/29 07:06:03;;;;;;;6.13;3.35;;;;;;;;;;5004001;28;20052;-71
2023/09/29 07:09:43;;;;;;;21.35;4.82;;;;;;;;;;4999519;28;20050;-69
2023/09/29 07:13:25;;;;;;;9.77;4.68;;;;;;;;;;4996938;28;20054;-70
2023/09/29 07:17:05;;;;;;;13.45;4.10;;;;;;;;;;5003793;28;20369;-69
2023/09/29 07:20:45;;;;;;;14.35;4.03;;;;;;;;;;5000382;28;20049;-69
2023/09/29 07:24:28;;;;;;;13.05;4.75;;;;;;;;;;5001271;28;20064;-70
2023/09/29 07:28:08;;;;;;;16.70;5.53;;;;;;;;;;5002223;28;20053;-70
2023/09/29 07:31:54;;;;;;;17.10;5.68;;;;;;;;;;5004433;28;20054;-72
2023/09/29 07:35:35;;;;;;;14.85;5.95;;;;;;;;;;5001636;28;20057;-69
2023/09/29 07:39:15;;;;;;;27.85;6.60;;;;;;;;;;4999378;28;20401;-69
2023/09/29 07:42:55;;;;;;;20.65;7.50;;;;;;;;;;5000938;28;20153;-70
2023/09/29 07:46:36;;;;;;;16.10;6.25;;;;;;;;;;5002780;28;20072;-71
2023/09/29 07:50:19;;;;;;;21.65;8.70;;;;;;;;;;5001049;28;20045;-70
2023/09/29 07:53:59;;;;;;;23.40;7.10;;;;;;;;;;5006439;28;20049;-72
2023/09/29 07:57:42;;;;;;;28.02;7.70;;;;;;;;;;5007470;28;20172;-71
2023/09/29 08:01:23;;;;;;;18.05;6.78;;;;;;;;;;5007904;28;20042;-70
2023/09/29 08:05:03;;;;;;;15.25;5.93;;;;;;;;;;4997972;28;20050;-71
2023/09/29 08:08:43;;;;;;;14.82;6.32;;;;;;;;;;5002040;28;20302;-75
2023/09/29 08:12:25;;;;;;;19.95;5.63;;;;;;;;;;5001983;28;20675;-72
2023/09/29 08:16:06;;;;;;;30.25;7.03;;;;;;;;;;4994574;28;20050;-69
2023/09/29 08:19:45;;;;;;;16.67;6.03;;;;;;;;;;5000872;28;20041;-71
2023/09/29 08:23:30;;;;;;;11.23;5.50;;;;;;;;;;4998310;28;20062;-70
2023/09/29 08:27:06;;;;;;;12.15;5.20;;;;;;;;;;4999980;28;20053;-70
2023/09/29 08:30:47;;;;;;;17.08;6.03;;;;;;;;;;5005318;28;20053;-70
2023/09/29 08:34:30;;;;;;;11.48;5.32;;;;;;;;;;5005678;28;20089;-72
2023/09/29 08:38:09;;;;;;;13.45;4.28;;;;;;;;;;5001937;28;20058;-72
2023/09/29 08:41:49;;;;;;;13.13;5.07;;;;;;;;;;5000332;28;20058;-70
2023/09/29 08:45:30;;;;;;;11.65;5.25;;;;;;;;;;5004067;28;20038;-71
2023/09/29 08:49:11;;;;;;;10.15;5.15;;;;;;;;;;5006750;28;20103;-70
2023/09/29 08:52:51;;;;;;;10.88;5.18;;;;;;;;;;5007222;28;20056;-69
2023/09/29 08:56:33;;;;;;;12.20;4.82;;;;;;;;;;5004101;28;20045;-71
2023/09/29 09:00:13;;;;;;;13.38;5.53;;;;;;;;;;5000757;28;20054;-70
2023/09/29 09:03:54;;;;;;;8.35;4.10;;;;;;;;;;5006481;28;20052;-70
2023/09/29 09:07:35;;;;;;;11.05;4.30;;;;;;;;;;5005377;28;20050;-71
2023/09/29 09:11:19;;;;;;;12.15;4.40;;;;;;;;;;4998247;28;20186;-70
2023/09/29 09:15:00;;;;;;;10.50;4.80;;;;;;;;;;4998913;28;20056;-71
2023/09/29 09:18:40;;;;;;;8.32;4.47;;;;;;;;;;5002827;28;20049;-75
2023/09/29 09:22:31;;;;;;;7.25;3.65;;;;;;;;;;5001880;28;20046;-71
2023/09/29 09:26:10;;;;;;;12.05;5.05;;;;;;;;;;4999375;28;20437;-72
2023/09/29 09:29:50;;;;;;;19.05;5.70;;;;;;;;;;5005135;28;20074;-71
2023/09/29 09:33:38;;;;;;;12.73;4.70;;;;;;;;;;5006575;28;20089;-70
2023/09/29 09:37:12;;;;;;;13.35;4.85;;;;;;;;;;5002183;28;20153;-70
2023/09/29 09:40:49;;;;;;;10.60;4.18;;;;;;;;;;4996433;28;20425;-71
2023/09/29 09:44:32;;;;;;;14.63;4.70;;;;;;;;;;5005826;28;20133;-71
2023/09/29 09:48:10;;;;;;;8.90;3.60;;;;;;;;;;5000731;28;20077;-70
2023/09/29 09:51:50;;;;;;;7.95;3.85;;;;;;;;;;5006503;28;20129;-70
2023/09/29 09:55:34;;;;;;;6.28;3.75;;;;;;;;;;4999093;28;20048;-71
2023/09/29 09:59:14;;;;;;;9.73;4.18;;;;;;;;;;5001501;28;20156;-70
2023/09/29 10:03:03;;;;;;;6.78;3.60;;;;;;;;;;4998075;28;20568;-71
2023/09/29 10:06:38;;;;;;;10.35;3.70;;;;;;;;;;5005770;28;20058;-70
2023/09/29 10:10:20;;;;;;;7.80;3.55;;;;;;;;;;5003540;28;20052;-72
2023/09/29 10:14:03;;;;;;;8.77;3.17;;;;;;;;;;4996868;28;20459;-71
2023/09/29 10:17:43;;;;;;;9.88;3.72;;;;;;;;;;5007125;28;20511;-70
2023/09/29 10:21:26;;;;;;;8.27;3.58;;;;;;;;;;5001785;28;20073;-71
2023/09/29 10:25:06;;;;;;;7.40;3.65;;;;;;;;;;5004096;28;20038;-71
2023/09/29 10:28:49;;;;;;;5.60;3.08;;;;;;;;;;5001882;28;20054;-69
2023/09/29 10:32:30;;;;;;;6.57;3.20;;;;;;;;;;4999960;28;20046;-71
2023/09/29 10:36:11;;;;;;;4.93;3.00;;;;;;;;;;4998913;28;20136;-69
2023/09/29 10:39:50;;;;;;;6.80;3.42;;;;;;;;;;4999504;28;20117;-71
2023/09/29 10:43:35;;;;;;;7.47;3.20;;;;;;;;;;5004361;28;20041;-72
2023/09/29 10:47:16;;;;;;;7.40;3.72;;;;;;;;;;4996969;28;20268;-72
2023/09/29 10:51:01;;;;;;;6.32;3.78;;;;;;;;;;5005536;28;20041;-75
2023/09/29 10:54:21;;;;;;;;;;;;;;;;;;5000935;28;20042;-72
2023/09/29 10:58:03;;;;;;;9.40;3.63;;;;;;;;;;4999071;28;19928;-70
2023/09/29 11:01:44;;;;;;;6.95;3.63;;;;;;;;;;5001832;28;20454;-70
2023/09/29 11:05:22;;;;;;;10.20;3.80;;;;;;;;;;4999996;28;20048;-72
2023/09/29 11:09:13;;;;;;;9.60;3.92;;;;;;;;;;4995827;28;20088;-71
2023/09/29 11:12:56;;;;;;;11.80;3.72;;;;;;;;;;5002760;28;20402;-70
2023/09/29 11:16:36;;;;;;;11.98;4.40;;;;;;;;;;5005933;28;20081;-71
2023/09/29 11:20:24;;;;;;;10.52;3.20;;;;;;;;;;5004693;28;20042;-71
2023/09/29 11:24:05;;;;;;;9.70;3.38;;;;;;;;;;4997114;28;20406;-71
2023/09/29 11:27:46;;;;;;;7.95;4.25;;;;;;;;;;4996989;28;20034;-69
2023/09/29 11:31:26;;;;;;;12.50;4.43;;;;;;;;;;5003598;28;20173;-71
2023/09/29 11:35:13;;;;;;;12.20;3.22;;;;;;;;;;4999163;28;20054;-71
2023/09/29 11:38:50;;;;;;;4.97;3.10;;;;;;;;;;4995974;28;20057;-71
2023/09/29 11:42:31;;;;;;;5.53;2.58;;;;;;;;;;5000059;28;20049;-71
2023/09/29 11:46:13;;;;;;;6.40;3.05;;;;;;;;;;5004440;28;20536;-72
2023/09/29 11:49:51;;;;;;;13.18;3.35;;;;;;;;;;4995598;28;20081;-72
2023/09/29 11:53:32;;;;;;;8.65;3.30;;;;;;;;;;4999264;28;20092;-71
2023/09/29 11:57:12;;;;;;;8.05;3.15;;;;;;;;;;5000369;28;20207;-71
2023/09/29 12:00:52;;;;;;;9.80;3.40;;;;;;;;;;5005953;28;20069;-71
2023/09/29 12:04:34;;;;;;;12.38;3.22;;;;;;;;;;4994735;28;20140;-74
2023/09/29 12:08:15;;;;;;;8.88;3.08;;;;;;;;;;5002260;28;20049;-70
2023/09/29 12:12:00;;;;;;;7.22;3.17;;;;;;;;;;5002579;28;20065;-70
2023/09/29 12:15:36;;;;;;;9.35;3.60;;;;;;;;;;4999896;28;20125;-69
2023/09/29 12:19:20;;;;;;;9.48;3.30;;;;;;;;;;4996708;28;20050;-69
2023/09/29 12:23:01;;;;;;;11.75;3.22;;;;;;;;;;4999671;28;20482;-72
2023/09/29 12:26:46;;;;;;;6.47;2.80;;;;;;;;;;5003756;28;20056;-71
2023/09/29 12:30:25;;;;;;;7.57;2.60;;;;;;;;;;5002814;28;20049;-70
2023/09/29 12:34:05;;;;;;;5.57;3.10;;;;;;;;;;4997772;28;20608;-71
2023/09/29 12:37:47;;;;;;;11.52;3.95;;;;;;;;;;4996403;28;20077;-72
2023/09/29 12:41:27;;;;;;;5.88;3.10;;;;;;;;;;4996544;28;20038;-69
2023/09/29 12:45:08;;;;;;;7.47;2.90;;;;;;;;;;5001094;28;20503;-69
2023/09/29 12:48:49;;;;;;;8.45;3.10;;;;;;;;;;4998801;28;20065;-71
2023/09/29 12:52:28;;;;;;;10.02;2.67;;;;;;;;;;5003843;28;20540;-70
2023/09/29 12:56:09;;;;;;;6.88;2.88;;;;;;;;;;4999575;28;20049;-72
2023/09/29 12:59:49;;;;;;;11.55;2.80;;;;;;;;;;5004646;28;20512;-75
2023/09/29 13:03:30;;;;;;;4.53;2.17;;;;;;;;;;5008778;28;20124;-70
2023/09/29 13:07:10;;;;;;;6.00;2.65;;;;;;;;;;5011668;28;20072;-70
2023/09/29 13:10:52;;;;;;;5.15;2.70;;;;;;;;;;5006646;28;20063;-71
2023/09/29 13:14:33;;;;;;;7.55;2.55;;;;;;;;;;5006576;28;20556;-70
2023/09/29 13:18:15;;;;;;;4.72;2.58;;;;;;;;;;5010107;28;20125;-71
2023/09/29 13:21:56;;;;;;;9.23;2.95;;;;;;;;;;5004247;28;20100;-69
2023/09/29 13:25:42;;;;;;;7.30;2.72;;;;;;;;;;5000745;28;20077;-71
2023/09/29 13:29:22;;;;;;;6.13;3.00;;;;;;;;;;4996682;28;20109;-69
2023/09/29 13:33:03;;;;;;;7.53;2.75;;;;;;;;;;5005974;28;20093;-73
2023/09/29 13:36:43;;;;;;;7.85;3.40;;;;;;;;;;4996493;28;20558;-70
2023/09/29 13:40:23;;;;;;;9.60;3.10;;;;;;;;;;4997652;28;20051;-71
2023/09/29 13:44:04;;;;;;;8.05;3.30;;;;;;;;;;5002297;28;20045;-70
2023/09/29 13:47:44;;;;;;;7.10;3.25;;;;;;;;;;4997409;28;20445;-69
2023/09/29 13:51:26;;;;;;;7.93;3.10;;;;;;;;;;4997079;28;20054;-70
2023/09/29 13:55:05;;;;;;;6.63;3.58;;;;;;;;;;5003680;28;20052;-71
2023/09/29 13:58:46;;;;;;;7.78;3.42;;;;;;;;;;5000758;28;20087;-68
2023/09/29 14:02:27;;;;;;;11.98;3.30;;;;;;;;;;5005223;28;20226;-71
2023/09/29 14:06:08;;;;;;;8.23;3.47;;;;;;;;;;5005480;28;20529;-72
2023/09/29 14:09:49;;;;;;;12.18;3.70;;;;;;;;;;5000353;28;20077;-72
2023/09/29 14:13:29;;;;;;;12.52;3.25;;;;;;;;;;5003942;28;20129;-69
2023/09/29 14:17:10;;;;;;;7.90;3.40;;;;;;;;;;5004325;28;20702;-69
2023/09/29 14:20:52;;;;;;;8.23;3.58;;;;;;;;;;4999785;28;20042;-72
2023/09/29 14:24:34;;;;;;;7.35;3.35;;;;;;;;;;5001561;28;20375;-70
2023/09/29 14:28:14;;;;;;;8.50;3.25;;;;;;;;;;5003562;28;20458;-72
2023/09/29 14:32:04;;;;;;;9.35;3.60;;;;;;;;;;4999477;28;20061;-70
2023/09/29 14:35:45;;;;;;;14.10;3.42;;;;;;;;;;4996026;28;20058;-71
2023/09/29 14:39:42;;;;;;;8.77;3.30;;;;;;;;;;5002631;28;20052;-72
2023/09/29 14:43:24;;;;;;;8.98;4.20;;;;;;;;;;4995934;28;20046;-72
2023/09/29 14:47:03;;;;;;;7.63;3.25;;;;;;;;;;4999404;28;20061;-71
2023/09/29 14:50:43;;;;;;;6.43;3.30;;;;;;;;;;5003895;28;20042;-74
2023/09/29 14:54:24;;;;;;;5.68;2.85;;;;;;;;;;5005953;28;20339;-71
2023/09/29 14:58:04;;;;;;;7.53;3.30;;;;;;;;;;5004114;28;20053;-72
2023/09/29 15:01:44;;;;;;;9.63;2.97;;;;;;;;;;4998875;28;20049;-71
2023/09/29 15:05:26;;;;;;;6.97;3.05;;;;;;;;;;5002335;28;20236;-70
2023/09/29 15:09:05;;;;;;;11.10;3.17;;;;;;;;;;5001646;28;20046;-72
2023/09/29 15:12:46;;;;;;;9.48;3.30;;;;;;;;;;4998366;28;20068;-70
2023/09/29 15:16:33;;;;;;;13.32;3.70;;;;;;;;;;4996443;28;20052;-70
2023/09/29 15:20:15;;;;;;;8.95;3.10;;;;;;;;;;4996027;28;20034;-69
2023/09/29 15:23:55;;;;;;;7.22;3.05;;;;;;;;;;5004544;28;20050;-70
2023/09/29 15:27:35;;;;;;;7.90;3.10;;;;;;;;;;5007885;28;20053;-71
2023/09/29 15:31:22;;;;;;;9.95;3.60;;;;;;;;;;5002255;28;20050;-70
2023/09/29 15:35:02;;;;;;;6.00;3.42;;;;;;;;;;4990822;28;20064;-71
2023/09/29 15:38:44;;;;;;;6.88;3.55;;;;;;;;;;4995207;28;20177;-73
2023/09/29 15:42:24;;;;;;;11.77;4.22;;;;;;;;;;5000628;28;20061;-71
2023/09/29 15:46:04;;;;;;;9.80;3.78;;;;;;;;;;4999227;28;20042;-71
2023/09/29 15:49:46;;;;;;;6.10;3.60;;;;;;;;;;5005181;28;20048;-71
2023/09/29 15:53:26;;;;;;;5.60;3.55;;;;;;;;;;4996196;28;20050;-70
2023/09/29 15:57:11;;;;;;;7.40;3.55;;;;;;;;;;5001378;28;20046;-69
2023/09/29 16:00:48;;;;;;;8.35;3.83;;;;;;;;;;4997315;28;20157;-72
2023/09/29 16:04:29;;;;;;;10.50;3.80;;;;;;;;;;4997454;28;20054;-69
2023/09/29 16:08:09;;;;;;;7.82;3.83;;;;;;;;;;4997561;28;20448;-71
2023/09/29 16:11:51;;;;;;;7.72;4.10;;;;;;;;;;5002192;28;20111;-72
2023/09/29 16:15:31;;;;;;;6.55;3.47;;;;;;;;;;5002850;28;20045;-72
2023/09/29 16:19:14;;;;;;;7.10;3.83;;;;;;;;;;5003257;28;21069;-71
2023/09/29 16:22:56;;;;;;;5.15;3.03;;;;;;;;;;4994475;28;20054;-71
2023/09/29 16:26:37;;;;;;;12.13;3.45;;;;;;;;;;4987977;28;20038;-75
2023/09/29 16:30:17;;;;;;;6.20;3.50;;;;;;;;;;4994039;28;20042;-76
2023/09/29 16:33:58;;;;;;;7.47;3.40;;;;;;;;;;4992208;28;20069;-72
2023/09/29 16:37:39;;;;;;;9.80;4.10;;;;;;;;;;5002946;28;20410;-73
2023/09/29 16:41:19;;;;;;;6.50;3.58;;;;;;;;;;4997862;28;20045;-73
2023/09/29 16:45:00;;;;;;;5.97;3.13;;;;;;;;;;5005315;28;20062;-73
2023/09/29 16:48:40;;;;;;;4.60;2.80;;;;;;;;;;5001233;28;20054;-73
2023/09/29 16:52:21;;;;;;;4.45;2.78;;;;;;;;;;5009117;28;20060;-72
2023/09/29 16:56:03;;;;;;;5.25;2.70;;;;;;;;;;4995012;28;20480;-70
2023/09/29 16:59:43;;;;;;;8.00;3.38;;;;;;;;;;4996277;28;20048;-73
2023/09/29 17:03:24;;;;;;;4.78;2.80;;;;;;;;;;5001038;28;20049;-78
2023/09/29 17:07:04;;;;;;;6.70;3.20;;;;;;;;;;5004615;28;20139;-75
2023/09/29 17:10:45;;;;;;;4.82;2.70;;;;;;;;;;4994209;28;20474;-74
2023/09/29 17:14:25;;;;;;;4.30;2.70;;;;;;;;;;5001707;28;20555;-75
2023/09/29 17:18:05;;;;;;;3.83;3.25;;;;;;;;;;4982843;28;20064;-74
2023/09/29 17:21:46;;;;;;;5.50;3.08;;;;;;;;;;4988173;28;20046;-72
2023/09/29 17:25:32;;;;;;;4.25;2.70;;;;;;;;;;4987418;28;20049;-75
2023/09/29 17:29:13;;;;;;;5.38;2.85;;;;;;;;;;4979726;28;20069;-74
2023/09/29 17:32:55;;;;;;;6.47;3.00;;;;;;;;;;4985790;28;20132;-74
2023/09/29 17:36:37;;;;;;;6.30;2.75;;;;;;;;;;4987170;28;20050;-73
2023/09/29 17:40:17;;;;;;;13.55;3.83;;;;;;;;;;4990600;28;20703;-75
2023/09/29 17:43:58;;;;;;;7.20;4.60;;;;;;;;;;4986649;28;20053;-73
2023/09/29 17:47:39;;;;;;;7.10;3.30;;;;;;;;;;4986601;28;20622;-72
2023/09/29 17:51:20;;;;;;;11.13;3.30;;;;;;;;;;4989911;28;20057;-74
2023/09/29 17:55:00;;;;;;;5.75;2.50;;;;;;;;;;4988651;28;20514;-74
2023/09/29 17:58:41;;;;;;;6.00;3.50;;;;;;;;;;4988126;28;20077;-75
2023/09/29 18:02:21;;;;;;;6.95;2.78;;;;;;;;;;4992402;28;20050;-75
2023/09/29 18:06:03;;;;;;;5.97;2.85;;;;;;;;;;4992720;28;20050;-73
2023/09/29 18:09:44;;;;;;;5.07;2.70;;;;;;;;;;4986597;28;20474;-76
2023/09/29 18:13:25;;;;;;;5.40;3.08;;;;;;;;;;4997035;28;20057;-78
2023/09/29 18:17:05;;;;;;;6.80;2.97;;;;;;;;;;5013800;28;20248;-80
2023/09/29 18:20:45;;;;;;;6.13;2.78;;;;;;;;;;5014071;28;20946;-78
2023/09/29 18:24:26;;;;;;;4.28;3.00;;;;;;;;;;5020188;28;20037;-80
2023/09/29 18:28:06;;;;;;;6.63;2.97;;;;;;;;;;5008059;28;20107;-79
2023/09/29 18:31:46;;;;;;;9.75;3.13;;;;;;;;;;4989977;28;20411;-79
2023/09/29 18:35:28;;;;;;;8.70;3.50;;;;;;;;;;4997357;28;20108;-78
2023/09/29 18:39:11;;;;;;;7.20;3.05;;;;;;;;;;4984875;28;20414;-78
2023/09/29 18:42:52;;;;;;;5.90;3.03;;;;;;;;;;4986505;28;21043;-73
2023/09/29 18:46:38;;;;;;;5.95;3.00;;;;;;;;;;4988965;28;20041;-69
2023/09/29 18:50:18;;;;;;;8.13;2.88;;;;;;;;;;4982871;28;20049;-73
2023/09/29 18:54:00;;;;;;;6.45;2.95;;;;;;;;;;4988242;28;20049;-74
2023/09/29 18:57:40;;;;;;;6.53;2.70;;;;;;;;;;4988106;28;20153;-73
2023/09/29 19:01:21;;;;;;;7.57;3.35;;;;;;;;;;4990963;28;21235;-74
2023/09/29 19:05:01;;;;;;;6.82;2.67;;;;;;;;;;4988261;28;20057;-73
2023/09/29 19:08:41;;;;;;;6.03;2.70;;;;;;;;;;4982329;28;20053;-76
2023/09/29 19:12:22;;;;;;;6.63;2.90;;;;;;;;;;4986632;28;20143;-77
2023/09/29 19:16:02;;;;;;;7.45;3.15;;;;;;;;;;5009568;28;20333;-80
2023/09/29 19:19:42;;;;;;;4.43;2.88;;;;;;;;;;5003428;28;20045;-77
2023/09/29 19:23:23;;;;;;;6.20;3.60;;;;;;;;;;4988945;28;20058;-76
2023/09/29 19:27:04;;;;;;;3.17;2.70;;;;;;;;;;4990853;28;20179;-74
2023/09/29 19:30:45;;;;;;;5.85;2.85;;;;;;;;;;4986473;28;20056;-74
2023/09/29 19:34:27;;;;;;;8.40;4.47;;;;;;;;;;4989569;28;20081;-74
2023/09/29 19:38:12;;;;;;;7.55;3.03;;;;;;;;;;5002879;28;20443;-76
2023/09/29 19:41:50;;;;;;;7.78;3.42;;;;;;;;;;5005669;28;20054;-77
2023/09/29 19:45:30;;;;;;;6.72;3.15;;;;;;;;;;5002384;28;20133;-78
2023/09/29 19:49:11;;;;;;;7.15;3.20;;;;;;;;;;5001048;28;20153;-77
2023/09/29 19:52:51;;;;;;;4.82;2.72;;;;;;;;;;5003234;28;20050;-77
2023/09/29 19:56:34;;;;;;;8.18;3.38;;;;;;;;;;5009496;28;20057;-79
2023/09/29 20:00:15;;;;;;;5.90;3.15;;;;;;;;;;4998557;28;20043;-79
2023/09/29 20:03:55;;;;;;;4.00;2.65;;;;;;;;;;5010728;28;20489;-78
2023/09/29 20:07:35;;;;;;;5.45;3.05;;;;;;;;;;5005678;28;20070;-77
2023/09/29 20:11:16;;;;;;;6.05;2.80;;;;;;;;;;5008798;28;20052;-78
2023/09/29 20:14:56;;;;;;;3.97;2.67;;;;;;;;;;5008691;28;20063;-77
2023/09/29 20:18:37;;;;;;;9.55;3.17;;;;;;;;;;5006721;28;20049;-78
2023/09/29 20:22:17;;;;;;;8.05;2.63;;;;;;;;;;5006634;28;20045;-79
2023/09/29 20:25:58;;;;;;;7.07;3.17;;;;;;;;;;4998189;28;20096;-76
2023/09/29 20:29:38;;;;;;;9.35;3.00;;;;;;;;;;5001361;28;20046;-76
2023/09/29 20:33:20;;;;;;;6.70;3.00;;;;;;;;;;5004517;28;20049;-78
2023/09/29 20:37:00;;;;;;;6.75;2.67;;;;;;;;;;5004910;28;20057;-75
2023/09/29 20:40:43;;;;;;;3.85;2.65;;;;;;;;;;4997805;28;20050;-77
2023/09/29 20:44:22;;;;;;;6.05;3.30;;;;;;;;;;5000844;28;20068;-74
2023/09/29 20:48:03;;;;;;;6.18;3.58;;;;;;;;;;5002611;28;20132;-74
2023/09/29 20:51:51;;;;;;;7.00;3.63;;;;;;;;;;5001129;28;20073;-74
2023/09/29 20:55:31;;;;;;;5.22;3.55;;;;;;;;;;4999079;28;20052;-74
2023/09/29 20:59:12;;;;;;;4.80;3.40;;;;;;;;;;5008058;28;20085;-74
2023/09/29 21:02:53;;;;;;;4.70;3.42;;;;;;;;;;4999038;28;20139;-75
2023/09/29 21:06:33;;;;;;;6.25;3.20;;;;;;;;;;4999456;28;20135;-76
2023/09/29 21:10:14;;;;;;;9.13;3.50;;;;;;;;;;5004575;28;20077;-74
2023/09/29 21:13:54;;;;;;;9.02;3.90;;;;;;;;;;5003958;28;20050;-75
2023/09/29 21:17:35;;;;;;;5.82;3.90;;;;;;;;;;4998343;28;20124;-75
2023/09/29 21:21:15;;;;;;;13.05;4.43;;;;;;;;;;5002399;28;20045;-75
2023/09/29 21:24:56;;;;;;;7.47;4.40;;;;;;;;;;5004927;28;20081;-71
2023/09/29 21:28:40;;;;;;;9.45;4.55;;;;;;;;;;5006080;28;20477;-71
2023/09/29 21:32:17;;;;;;;6.38;3.92;;;;;;;;;;5003828;28;20049;-73
2023/09/29 21:35:57;;;;;;;8.02;4.10;;;;;;;;;;5002170;28;20072;-74
2023/09/29 21:39:37;;;;;;;7.82;4.22;;;;;;;;;;5005672;28;20061;-74
2023/09/29 21:43:19;;;;;;;8.15;4.65;;;;;;;;;;5005165;28;20050;-72
2023/09/29 21:46:59;;;;;;;6.43;3.80;;;;;;;;;;5002801;28;20063;-74
2023/09/29 21:50:40;;;;;;;8.18;4.18;;;;;;;;;;5005186;28;20120;-70
2023/09/29 21:54:20;;;;;;;8.32;4.20;;;;;;;;;;5009102;28;20124;-73
2023/09/29 21:58:01;;;;;;;7.30;4.57;;;;;;;;;;5003907;28;20108;-73